CHH2257 KBFI-PHNL
Flight info
| Callsign | CHH2257 |
|---|---|
| Flight time | N/A |
| Altitude | 37700 |
| Route | NRVNA1 NRVNA JJAMM ELMAA HQM SEDAR A331 ZIGIE MAGGI3 |
| Aircraft | B38M/M-SDE1FGHILORVWXY/HB1 |
Departure
| Time | N/A |
|---|---|
| Airport | King County International Airport - Boeing Field (KBFI) |
Arrival
| Time | 2026-05-01 07:41 |
|---|---|
| Airport | Daniel K. Inouye International Airport (PHNL) |
| Time | Latitude | Longitude | Altitude | Speed | Heading |
|---|---|---|---|---|---|
| 2026-05-01 07:23 | 21.90073 | -156.94818 | 7003 ft | 383 kts | 196° |
| 2026-05-01 07:23 | 21.85071 | -156.96741 | 7001 ft | 383 kts | 214° |
| 2026-05-01 07:24 | 21.82999 | -156.98456 | 7009 ft | 382 kts | 225° |
| 2026-05-01 07:24 | 21.81155 | -157.00481 | 6994 ft | 379 kts | 230° |
| 2026-05-01 07:24 | 21.79430 | -157.02600 | 7002 ft | 376 kts | 231° |
| 2026-05-01 07:24 | 21.77736 | -157.04750 | 7000 ft | 379 kts | 232° |
| 2026-05-01 07:25 | 21.76031 | -157.06932 | 6996 ft | 377 kts | 232° |
| 2026-05-01 07:25 | 21.74367 | -157.09062 | 7003 ft | 376 kts | 232° |
| 2026-05-01 07:25 | 21.72683 | -157.11226 | 7002 ft | 378 kts | 232° |
| 2026-05-01 07:25 | 21.70988 | -157.13406 | 6993 ft | 378 kts | 232° |
| 2026-05-01 07:26 | 21.69305 | -157.15572 | 7001 ft | 376 kts | 232° |
| 2026-05-01 07:26 | 21.67617 | -157.17738 | 7000 ft | 376 kts | 232° |
| 2026-05-01 07:26 | 21.65948 | -157.19888 | 7002 ft | 376 kts | 232° |
| 2026-05-01 07:26 | 21.64274 | -157.22044 | 7003 ft | 384 kts | 232° |
| 2026-05-01 07:27 | 21.62574 | -157.24232 | 6994 ft | 377 kts | 232° |
| 2026-05-01 07:27 | 21.60902 | -157.26375 | 6998 ft | 376 kts | 232° |
| 2026-05-01 07:27 | 21.59204 | -157.28557 | 6999 ft | 379 kts | 232° |
| 2026-05-01 07:27 | 21.57517 | -157.30719 | 6995 ft | 380 kts | 232° |
| 2026-05-01 07:28 | 21.55831 | -157.32881 | 6995 ft | 380 kts | 232° |
| 2026-05-01 07:28 | 21.54139 | -157.35051 | 6993 ft | 380 kts | 232° |
| 2026-05-01 07:28 | 21.52422 | -157.37251 | 6994 ft | 380 kts | 232° |
| 2026-05-01 07:28 | 21.50737 | -157.39410 | 6992 ft | 380 kts | 232° |
| 2026-05-01 07:29 | 21.49035 | -157.41589 | 6992 ft | 380 kts | 232° |
| 2026-05-01 07:29 | 21.47334 | -157.43767 | 6991 ft | 380 kts | 232° |
| 2026-05-01 07:29 | 21.45630 | -157.45947 | 6711 ft | 382 kts | 232° |
| 2026-05-01 07:29 | 21.43924 | -157.48129 | 6324 ft | 378 kts | 232° |
| 2026-05-01 07:30 | 21.42244 | -157.50278 | 5954 ft | 377 kts | 231° |
| 2026-05-01 07:30 | 21.40548 | -157.52443 | 5468 ft | 377 kts | 231° |
| 2026-05-01 07:30 | 21.38883 | -157.54558 | 5190 ft | 372 kts | 231° |
| 2026-05-01 07:30 | 21.37209 | -157.56686 | 5199 ft | 375 kts | 231° |
| 2026-05-01 07:31 | 21.35509 | -157.58852 | 5189 ft | 376 kts | 231° |
| 2026-05-01 07:31 | 21.30483 | -157.65250 | 5191 ft | 375 kts | 231° |
| 2026-05-01 07:32 | 21.27477 | -157.69507 | 4975 ft | 323 kts | 244° |
| 2026-05-01 07:32 | 21.26690 | -157.71611 | 4590 ft | 296 kts | 256° |
| 2026-05-01 07:33 | 21.26042 | -157.75723 | 3852 ft | 269 kts | 266° |
| 2026-05-01 07:33 | 21.25874 | -157.77641 | 3590 ft | 264 kts | 267° |
| 2026-05-01 07:33 | 21.25550 | -157.81508 | 3588 ft | 266 kts | 267° |
| 2026-05-01 07:34 | 21.25383 | -157.83478 | 3594 ft | 265 kts | 267° |
| 2026-05-01 07:34 | 21.25043 | -157.87411 | 3597 ft | 267 kts | 267° |
| 2026-05-01 07:34 | 21.24878 | -157.89360 | 3599 ft | 267 kts | 268° |
| 2026-05-01 07:35 | 21.24705 | -157.91324 | 3575 ft | 266 kts | 267° |
| 2026-05-01 07:35 | 21.24532 | -157.93330 | 3513 ft | 269 kts | 268° |
| 2026-05-01 07:35 | 21.24382 | -157.95303 | 3360 ft | 265 kts | 272° |
| 2026-05-01 07:35 | 21.24425 | -157.97258 | 3141 ft | 263 kts | 269° |
| 2026-05-01 07:36 | 21.24187 | -157.99222 | 2897 ft | 262 kts | 263° |
| 2026-05-01 07:36 | 21.23918 | -158.01096 | 2589 ft | 252 kts | 264° |
| 2026-05-01 07:36 | 21.23714 | -158.02908 | 2307 ft | 234 kts | 266° |
| 2026-05-01 07:36 | 21.23612 | -158.04533 | 2295 ft | 200 kts | 279° |
| 2026-05-01 07:37 | 21.25175 | -158.06107 | 2297 ft | 157 kts | 5° |
| 2026-05-01 07:37 | 21.26114 | -158.05614 | 2291 ft | 152 kts | 49° |
| 2026-05-01 07:37 | 21.26507 | -158.04568 | 2307 ft | 155 kts | 77° |
| 2026-05-01 07:38 | 21.26620 | -158.03416 | 2293 ft | 155 kts | 83° |
| 2026-05-01 07:38 | 21.26693 | -158.02258 | 2299 ft | 156 kts | 83° |
| 2026-05-01 07:38 | 21.26833 | -157.99904 | 2297 ft | 157 kts | 81° |
| 2026-05-01 07:39 | 21.27131 | -157.98778 | 2293 ft | 157 kts | 59° |
| 2026-05-01 07:39 | 21.27764 | -157.97823 | 2198 ft | 164 kts | 50° |
| 2026-05-01 07:39 | 21.29087 | -157.95979 | 971 ft | 155 kts | 51° |
| 2026-05-01 07:40 | 21.29704 | -157.95123 | 735 ft | 153 kts | 53° |
| 2026-05-01 07:40 | 21.30355 | -157.94168 | 484 ft | 152 kts | 56° |
| 2026-05-01 07:40 | 21.30989 | -157.93283 | 180 ft | 150 kts | 52° |
| 2026-05-01 07:40 | 21.31589 | -157.92435 | 29 ft | 134 kts | 54° |
| 2026-05-01 07:41 | 21.32022 | -157.91814 | 23 ft | 65 kts | 51° |
| 2026-05-01 07:41 | 21.32174 | -157.91597 | 22 ft | 10 kts | 53° |
| 2026-05-01 07:41 | 21.32307 | -157.91441 | 22 ft | 17 kts | 36° |
| 2026-05-01 07:42 | 21.32438 | -157.91359 | 22 ft | 26 kts | 20° |
| 2026-05-01 07:42 | 21.32618 | -157.91318 | 22 ft | 22 kts | 8° |
| 2026-05-01 07:42 | 21.32740 | -157.91296 | 22 ft | 1 kts | 12° |
| 2026-05-01 07:42 | 21.32741 | -157.91295 | 22 ft | 0 kts | 12° |
| 2026-05-01 07:43 | 21.32742 | -157.91295 | 22 ft | 3 kts | 12° |
| 2026-05-01 07:43 | 21.32837 | -157.91284 | 22 ft | 11 kts | 27° |
| 2026-05-01 07:44 | 21.32900 | -157.91267 | 22 ft | 3 kts | 324° |
| 2026-05-01 07:44 | 21.32943 | -157.91303 | 22 ft | 0 kts | 322° |